createdAt,value
2023-05-02T00:00:21.427Z,82.55
2023-05-02T00:02:51.400Z,82.34
2023-05-02T00:05:21.631Z,82.40
2023-05-02T00:07:54.220Z,82.53
2023-05-02T00:10:24.161Z,82.37
2023-05-02T00:12:53.916Z,83.07
2023-05-02T00:15:23.868Z,82.64
2023-05-02T00:17:53.676Z,82.86
2023-05-02T00:20:23.715Z,82.50
2023-05-02T00:22:56.112Z,81.65
2023-05-02T00:25:25.953Z,82.01
2023-05-02T00:27:55.762Z,82.07
2023-05-02T00:30:25.508Z,81.51
2023-05-02T00:32:55.984Z,79.85
2023-05-02T00:35:25.927Z,79.84
2023-05-02T00:37:58.395Z,78.48
2023-05-02T00:40:28.160Z,77.87
2023-05-02T00:42:57.950Z,78.63
2023-05-02T00:45:27.826Z,79.26
2023-05-02T00:47:57.754Z,79.49
2023-05-02T00:50:29.946Z,79.61
2023-05-02T00:53:03.995Z,80.68
2023-05-02T00:55:34.721Z,81.11
2023-05-02T00:58:06.951Z,82.03
2023-05-02T01:00:49.472Z,83.31
2023-05-02T01:03:35.365Z,83.45
2023-05-02T01:06:17.065Z,83.60
2023-05-02T01:08:55.282Z,83.81
2023-05-02T01:11:32.213Z,83.91
2023-05-02T01:14:04.793Z,84.43
2023-05-02T01:16:38.557Z,85.25
2023-05-02T01:19:12.346Z,84.64
2023-05-02T01:21:43.505Z,84.70
2023-05-02T01:24:25.147Z,84.40
2023-05-02T01:27:02.787Z,84.36
2023-05-02T01:29:36.497Z,83.98
2023-05-02T01:32:09.157Z,84.86
2023-05-02T01:34:41.444Z,84.88
2023-05-02T01:37:13.995Z,85.65
2023-05-02T01:39:45.553Z,85.37
2023-05-02T01:42:17.842Z,84.92
2023-05-02T01:44:53.624Z,85.57
2023-05-02T01:47:25.748Z,85.89
2023-05-02T01:49:56.375Z,86.11
2023-05-02T01:52:28.574Z,85.99
2023-05-02T01:55:00.501Z,86.84
2023-05-02T01:57:30.622Z,86.59
2023-05-02T02:00:05.081Z,87.12
2023-05-02T02:02:45.265Z,86.99
2023-05-02T02:05:18.918Z,87.33
2023-05-02T02:07:49.001Z,87.55
2023-05-02T02:10:19.007Z,87.03
2023-05-02T02:13:01.843Z,87.14
2023-05-02T02:15:38.552Z,87.79
2023-05-02T02:18:13.126Z,87.77
2023-05-02T02:20:46.894Z,88.78
2023-05-02T02:23:18.369Z,88.57
2023-05-02T02:25:49.074Z,88.25
2023-05-02T02:28:19.017Z,88.03
2023-05-02T02:30:51.595Z,86.95
2023-05-02T02:33:22.443Z,87.30
2023-05-02T02:36:01.121Z,87.26
2023-05-02T02:38:38.352Z,87.44
2023-05-02T02:41:17.384Z,87.71
2023-05-02T02:44:03.253Z,87.96
2023-05-02T02:46:48.063Z,87.92
2023-05-02T02:49:31.021Z,88.79
2023-05-02T02:52:08.394Z,89.02
2023-05-02T02:54:43.357Z,89.38
2023-05-02T02:57:20.402Z,89.60
2023-05-02T02:59:57.669Z,89.89
2023-05-02T03:02:34.031Z,89.56
2023-05-02T03:05:06.262Z,89.67
2023-05-02T03:07:37.070Z,89.85
2023-05-02T03:10:07.882Z,89.51
2023-05-02T03:12:40.149Z,89.41
2023-05-02T03:15:26.492Z,88.98
2023-05-02T03:17:59.006Z,89.05
2023-05-02T03:20:28.988Z,89.41
2023-05-02T03:22:58.749Z,89.41
2023-05-02T03:25:28.764Z,89.08
2023-05-02T03:28:00.379Z,89.35
2023-05-02T03:30:30.447Z,89.22
2023-05-02T03:33:04.997Z,89.86
2023-05-02T03:35:35.221Z,90.06
2023-05-02T03:38:05.365Z,90.07
2023-05-02T03:40:35.426Z,90.20
2023-05-02T03:43:05.528Z,90.97
2023-05-02T03:45:36.063Z,91.99
2023-05-02T03:48:08.620Z,91.61
2023-05-02T03:50:40.401Z,92.57
2023-05-02T03:53:10.781Z,92.98
2023-05-02T03:55:49.406Z,93.31
2023-05-02T03:58:27.334Z,94.70
2023-05-02T04:00:58.009Z,95.15
2023-05-02T04:03:32.558Z,95.20
2023-05-02T04:06:04.526Z,96.72
2023-05-02T04:08:34.631Z,98.11
2023-05-02T04:11:04.927Z,99.93
2023-05-02T04:13:34.697Z,100.00
2023-05-02T04:16:05.028Z,100.00
2023-05-02T04:18:40.284Z,100.00
2023-05-02T04:21:12.067Z,100.00
2023-05-02T04:23:42.579Z,100.00
2023-05-02T04:26:12.408Z,100.00
2023-05-02T04:28:54.636Z,100.00
2023-05-02T04:31:24.469Z,100.00
2023-05-02T04:33:57.871Z,100.00
2023-05-02T04:36:30.571Z,100.00
2023-05-02T04:39:00.364Z,100.00
2023-05-02T04:41:30.949Z,99.99
2023-05-02T04:44:05.720Z,99.85
2023-05-02T04:46:36.166Z,100.00
2023-05-02T04:49:08.679Z,100.00
2023-05-02T04:51:38.597Z,100.00
2023-05-02T04:54:08.362Z,100.00
2023-05-02T04:56:38.297Z,100.00
2023-05-02T04:59:08.162Z,97.89
2023-05-02T05:01:38.563Z,100.00
2023-05-02T05:04:12.995Z,100.00
2023-05-02T05:06:43.044Z,100.00
2023-05-02T05:09:13.454Z,100.00
2023-05-02T05:11:43.853Z,100.00
2023-05-02T05:14:13.626Z,100.00
2023-05-02T05:16:46.077Z,100.00
2023-05-02T05:19:18.673Z,100.00
2023-05-02T05:21:48.437Z,100.00
2023-05-02T05:24:20.761Z,100.00
2023-05-02T05:26:51.792Z,100.00
2023-05-02T05:29:21.779Z,100.00
2023-05-02T05:31:51.650Z,100.00
2023-05-02T05:34:26.902Z,100.00
2023-05-02T05:36:59.848Z,100.00
2023-05-02T05:39:35.772Z,100.00
2023-05-02T05:42:12.578Z,100.00
2023-05-02T05:44:43.390Z,100.00
2023-05-02T05:47:13.338Z,100.00
2023-05-02T05:49:45.818Z,100.00
2023-05-02T05:52:15.761Z,100.00
2023-05-02T05:54:45.529Z,100.00
2023-05-02T05:57:15.550Z,100.00
2023-05-02T05:59:46.195Z,100.00
2023-05-02T06:02:17.402Z,100.00
2023-05-02T06:04:49.855Z,100.00
2023-05-02T06:07:22.814Z,100.00
2023-05-02T06:09:52.541Z,100.00
2023-05-02T06:12:22.329Z,100.00
2023-05-02T06:14:52.838Z,100.00
2023-05-02T06:17:23.180Z,100.00
2023-05-02T06:19:55.656Z,100.00
2023-05-02T06:22:25.559Z,100.00
2023-05-02T06:24:56.328Z,100.00
2023-05-02T06:27:26.264Z,100.00
2023-05-02T06:29:56.602Z,98.61
2023-05-02T06:32:26.588Z,99.49
2023-05-02T06:34:58.985Z,100.00
2023-05-02T06:37:28.943Z,100.00
2023-05-02T06:39:58.974Z,98.38
2023-05-02T06:42:29.664Z,96.63
2023-05-02T06:44:59.501Z,97.08
2023-05-02T06:47:29.364Z,96.39
2023-05-02T06:50:02.095Z,94.78
2023-05-02T06:52:32.676Z,91.37
2023-05-02T06:55:02.512Z,91.64
2023-05-02T06:57:32.940Z,91.93
2023-05-02T07:00:03.561Z,90.10
2023-05-02T07:02:34.124Z,91.08
2023-05-02T07:05:07.317Z,89.69
2023-05-02T07:07:37.162Z,90.21
2023-05-02T07:10:07.675Z,89.12
2023-05-02T07:12:37.797Z,89.64
2023-05-02T07:15:09.348Z,86.83
2023-05-02T07:17:39.332Z,86.06
2023-05-02T07:20:13.961Z,84.97
2023-05-02T07:22:43.773Z,84.30
2023-05-02T07:25:13.705Z,83.24
2023-05-02T07:27:43.655Z,83.89
2023-05-02T07:30:14.785Z,85.47
2023-05-02T07:32:44.665Z,85.12
2023-05-02T07:35:17.225Z,86.01
2023-05-02T07:37:47.192Z,85.54
2023-05-02T07:40:17.529Z,84.57
2023-05-02T07:42:47.399Z,83.92
2023-05-02T07:45:17.452Z,85.49
2023-05-02T07:47:48.264Z,84.12
2023-05-02T07:50:21.067Z,84.29
2023-05-02T07:52:51.001Z,82.73
2023-05-02T07:55:21.646Z,82.74
2023-05-02T07:57:51.471Z,82.63
2023-05-02T08:00:22.286Z,83.80
2023-05-02T08:02:52.234Z,83.33
2023-05-02T08:05:25.042Z,81.52
2023-05-02T08:07:54.844Z,80.37
2023-05-02T08:10:24.708Z,81.30
2023-05-02T08:12:54.526Z,81.23
2023-05-02T08:15:24.428Z,80.91
2023-05-02T08:17:54.562Z,80.92
2023-05-02T08:20:27.074Z,80.44
2023-05-02T08:22:59.272Z,81.47
2023-05-02T08:25:30.636Z,81.14
2023-05-02T08:28:00.477Z,78.80
2023-05-02T08:30:30.441Z,77.71
2023-05-02T08:33:00.375Z,76.84
2023-05-02T08:35:34.407Z,76.59
2023-05-02T08:38:04.232Z,76.90
2023-05-02T08:40:42.693Z,78.89
2023-05-02T08:43:14.660Z,77.46
2023-05-02T08:45:46.178Z,77.27
2023-05-02T08:48:17.486Z,76.56
2023-05-02T08:50:51.238Z,76.74
2023-05-02T08:53:21.502Z,77.69
2023-05-02T08:55:52.142Z,77.75
2023-05-02T08:58:22.023Z,77.69
2023-05-02T09:00:53.268Z,76.72
2023-05-02T09:03:31.943Z,77.85
2023-05-02T09:06:12.951Z,77.23
2023-05-02T09:08:44.354Z,77.62
2023-05-02T09:11:16.134Z,78.06
2023-05-02T09:13:47.380Z,76.02
2023-05-02T09:16:18.738Z,73.89
2023-05-02T09:18:50.021Z,74.18
2023-05-02T09:21:24.246Z,74.16
2023-05-02T09:23:55.446Z,74.46
2023-05-02T09:26:29.549Z,73.30
2023-05-02T09:29:02.422Z,72.92
2023-05-02T09:34:13.073Z,71.82
2023-05-02T09:36:47.312Z,72.46
2023-05-02T09:39:19.575Z,72.91
2023-05-02T09:41:50.881Z,71.00
2023-05-02T09:44:22.330Z,70.87
2023-05-02T09:46:53.712Z,70.97
2023-05-02T09:49:42.533Z,71.20
2023-05-02T09:52:19.981Z,70.41
2023-05-02T09:54:50.849Z,70.94
2023-05-02T09:57:20.767Z,71.14
2023-05-02T09:59:58.340Z,71.15
2023-05-02T10:02:28.813Z,70.04
2023-05-02T10:05:00.410Z,68.46
2023-05-02T10:07:33.564Z,69.91
2023-05-02T10:10:05.633Z,68.65
2023-05-02T10:12:36.351Z,68.26
2023-05-02T10:15:07.628Z,68.26
2023-05-02T10:17:43.917Z,68.51
2023-05-02T10:20:17.274Z,67.77
2023-05-02T10:22:52.537Z,68.18
2023-05-02T10:25:22.622Z,67.68
2023-05-02T10:27:52.688Z,67.56
2023-05-02T10:30:23.012Z,65.83
2023-05-02T10:32:56.022Z,65.89
2023-05-02T10:35:27.697Z,65.70
2023-05-02T10:38:01.290Z,66.61
2023-05-02T10:40:31.696Z,66.04
2023-05-02T10:43:01.760Z,66.23
2023-05-02T10:45:35.876Z,65.78
2023-05-02T10:48:19.953Z,65.28
2023-05-02T10:50:51.550Z,64.63
2023-05-02T10:53:33.055Z,64.82
2023-05-02T10:56:15.700Z,65.79
2023-05-02T10:58:46.406Z,63.76
2023-05-02T11:01:40.038Z,62.79
2023-05-02T11:04:11.455Z,62.47
2023-05-02T11:07:16.951Z,61.26
2023-05-02T11:09:49.373Z,60.24
2023-05-02T11:12:47.263Z,61.54
2023-05-02T11:15:17.166Z,59.59
2023-05-02T11:18:03.174Z,59.47
2023-05-02T11:20:33.580Z,58.60
2023-05-02T11:23:26.619Z,57.62
2023-05-02T11:26:03.475Z,57.49
2023-05-02T11:28:48.553Z,56.29
2023-05-02T11:32:06.875Z,55.63
2023-05-02T11:34:47.363Z,57.11
2023-05-02T11:37:18.423Z,54.31
2023-05-02T11:39:49.487Z,56.45
2023-05-02T11:42:35.058Z,54.51
2023-05-02T11:45:05.034Z,54.35
2023-05-02T11:47:36.506Z,55.77
2023-05-02T11:50:08.071Z,56.30
2023-05-02T11:52:41.731Z,54.14
2023-05-02T11:55:14.586Z,53.66
2023-05-02T11:57:47.004Z,55.62
2023-05-02T12:00:18.142Z,54.49
2023-05-02T12:02:49.657Z,53.89
2023-05-02T12:05:31.674Z,54.72
2023-05-02T12:08:02.756Z,54.08
2023-05-02T12:10:42.032Z,54.50
2023-05-02T12:13:14.691Z,54.75
2023-05-02T12:15:44.847Z,53.78
2023-05-02T12:18:16.046Z,53.07
2023-05-02T12:20:46.839Z,52.98
2023-05-02T12:23:17.083Z,54.97
2023-05-02T12:25:46.885Z,53.84
2023-05-02T12:28:21.208Z,52.37
2023-05-02T12:30:52.362Z,50.76
2023-05-02T12:33:22.197Z,51.94
2023-05-02T12:35:53.014Z,51.04
2023-05-02T12:38:23.745Z,51.40
2023-05-02T12:40:57.866Z,50.54
2023-05-02T12:43:30.259Z,49.29
2023-05-02T12:46:12.935Z,49.10
2023-05-02T12:48:44.887Z,50.67
2023-05-02T12:51:25.556Z,51.61
2023-05-02T12:53:55.318Z,51.22
2023-05-02T12:56:27.766Z,51.92
2023-05-02T12:59:01.560Z,53.04
2023-05-02T13:01:31.667Z,53.39
2023-05-02T13:04:01.536Z,53.20
2023-05-02T13:06:31.589Z,55.14
2023-05-02T13:09:02.065Z,53.90
2023-05-02T13:11:31.793Z,53.43
2023-05-02T13:14:06.014Z,53.86
2023-05-02T13:16:37.555Z,52.40
2023-05-02T13:19:08.591Z,53.79
2023-05-02T13:21:38.328Z,54.06
2023-05-02T13:24:08.954Z,53.69
2023-05-02T13:26:38.696Z,54.29
2023-05-02T13:29:12.780Z,51.80
2023-05-02T13:31:42.827Z,51.58
2023-05-02T13:34:12.716Z,51.55
2023-05-02T13:36:46.508Z,50.66
2023-05-02T13:39:16.726Z,51.78
2023-05-02T13:41:46.582Z,50.47
2023-05-02T13:44:18.898Z,49.96
2023-05-02T13:46:48.697Z,50.34
2023-05-02T13:49:19.310Z,50.42
2023-05-02T13:51:49.970Z,50.39
2023-05-02T13:54:19.993Z,50.38
2023-05-02T13:56:49.766Z,48.38
2023-05-02T13:59:22.094Z,48.03
2023-05-02T14:01:52.322Z,48.31
2023-05-02T14:04:23.533Z,49.03
2023-05-02T14:06:53.545Z,48.88
2023-05-02T14:09:23.511Z,48.54
2023-05-02T14:11:53.231Z,48.64
2023-05-02T14:14:25.609Z,49.52
2023-05-02T14:16:55.425Z,49.51
2023-05-02T14:19:25.182Z,50.53
2023-05-02T14:21:54.917Z,50.26
2023-05-02T14:24:24.678Z,50.26
2023-05-02T14:26:54.405Z,50.17
2023-05-02T14:29:26.886Z,49.58
2023-05-02T14:31:56.675Z,49.42
2023-05-02T14:34:27.352Z,49.54
2023-05-02T14:36:57.107Z,49.82
2023-05-02T14:39:27.783Z,49.46
2023-05-02T14:41:57.510Z,49.92
2023-05-02T14:44:29.802Z,50.02
2023-05-02T14:46:59.660Z,48.72
2023-05-02T14:49:30.439Z,49.21
2023-05-02T14:52:00.378Z,49.65
2023-05-02T14:54:31.229Z,49.72
2023-05-02T14:57:02.355Z,50.14
2023-05-02T14:59:36.228Z,50.16
2023-05-02T15:02:06.147Z,50.81
2023-05-02T15:04:36.035Z,51.01
2023-05-02T15:07:06.402Z,50.87
2023-05-02T15:09:36.265Z,51.08
2023-05-02T15:12:06.280Z,51.93
2023-05-02T15:14:38.617Z,50.45
2023-05-02T15:17:08.433Z,51.26
2023-05-02T15:19:38.266Z,51.29
2023-05-02T15:22:07.994Z,52.72
2023-05-02T15:24:37.744Z,52.99
2023-05-02T15:27:09.597Z,53.68
2023-05-02T15:29:42.033Z,54.22
2023-05-02T15:32:11.944Z,54.52
2023-05-02T15:34:41.785Z,52.62
2023-05-02T15:37:11.507Z,53.23
2023-05-02T15:39:41.339Z,54.77
2023-05-02T15:42:11.136Z,53.14
2023-05-02T15:44:43.467Z,54.54
2023-05-02T15:47:13.196Z,54.22
2023-05-02T15:49:43.525Z,53.30
2023-05-02T15:52:13.317Z,53.18
2023-05-02T15:54:43.222Z,53.99
2023-05-02T15:57:13.020Z,54.43
2023-05-02T15:59:45.537Z,53.75
2023-05-02T16:02:15.499Z,53.17
2023-05-02T16:04:45.624Z,53.84
2023-05-02T16:07:15.402Z,52.39
2023-05-02T16:09:45.140Z,50.99
2023-05-02T16:12:14.865Z,50.56
2023-05-02T16:14:47.220Z,51.96
2023-05-02T16:17:16.948Z,50.35
2023-05-02T16:19:46.754Z,50.56
2023-05-02T16:22:16.492Z,50.53
2023-05-02T16:24:46.219Z,51.09
2023-05-02T16:27:15.982Z,50.65
2023-05-02T16:29:48.704Z,52.49
2023-05-02T16:32:18.548Z,53.61
2023-05-02T16:34:48.276Z,54.01
2023-05-02T16:37:17.979Z,55.05
2023-05-02T16:39:47.785Z,56.31
2023-05-02T16:42:17.506Z,57.11
2023-05-02T16:44:50.126Z,57.17
2023-05-02T16:47:19.881Z,57.37
2023-05-02T16:49:49.659Z,57.73
2023-05-02T16:52:19.365Z,57.40
2023-05-02T16:54:49.159Z,56.50
2023-05-02T16:57:19.993Z,57.29
2023-05-02T16:59:54.933Z,56.54
2023-05-02T17:02:24.974Z,56.48
2023-05-02T17:04:54.947Z,56.66
2023-05-02T17:07:24.780Z,56.52
2023-05-02T17:09:54.585Z,56.92
2023-05-02T17:12:25.941Z,56.20
2023-05-02T17:14:58.327Z,56.04
2023-05-02T17:17:28.097Z,55.91
2023-05-02T17:19:57.976Z,55.64
2023-05-02T17:22:28.214Z,55.45
2023-05-02T17:24:57.987Z,55.64
2023-05-02T17:27:28.788Z,55.51
2023-05-02T17:30:01.621Z,54.98
2023-05-02T17:32:33.888Z,54.51
2023-05-02T17:35:03.614Z,55.47
2023-05-02T17:37:33.657Z,55.28
2023-05-02T17:40:05.205Z,56.04
2023-05-02T17:42:35.171Z,57.25
2023-05-02T17:45:08.566Z,58.72
2023-05-02T17:47:38.398Z,59.17
2023-05-02T17:50:09.659Z,60.30
2023-05-02T17:52:39.694Z,60.85
2023-05-02T17:55:11.254Z,61.00
2023-05-02T17:57:41.050Z,60.73
2023-05-02T18:00:14.807Z,60.51
2023-05-02T18:02:44.739Z,60.55
2023-05-02T18:05:14.705Z,60.96
2023-05-02T18:07:44.490Z,61.16
2023-05-02T18:10:14.964Z,60.35
2023-05-02T18:12:44.864Z,60.77
2023-05-02T18:15:17.909Z,60.44
2023-05-02T18:17:48.536Z,60.90
2023-05-02T18:20:18.647Z,61.15
2023-05-02T18:22:48.471Z,60.96
2023-05-02T18:25:18.271Z,60.58
2023-05-02T18:27:48.025Z,60.54
2023-05-02T18:30:20.577Z,60.37
2023-05-02T18:32:50.522Z,60.89
2023-05-02T18:35:20.869Z,60.49
2023-05-02T18:37:50.624Z,60.35
2023-05-02T18:40:21.024Z,60.56
2023-05-02T18:42:50.792Z,61.07
2023-05-02T18:45:23.102Z,61.03
2023-05-02T18:47:53.810Z,61.02
2023-05-02T18:50:23.739Z,60.52
2023-05-02T18:52:53.476Z,60.84
2023-05-02T18:55:25.279Z,60.82
2023-05-02T18:57:55.293Z,60.42
2023-05-02T19:00:30.306Z,60.54
2023-05-02T19:03:00.381Z,60.52
2023-05-02T19:05:30.425Z,60.16
2023-05-02T19:08:00.153Z,60.22
2023-05-02T19:10:29.972Z,60.89
2023-05-02T19:12:59.718Z,60.83
2023-05-02T19:15:32.310Z,60.61
2023-05-02T19:18:02.257Z,61.05
2023-05-02T19:20:32.448Z,61.77
2023-05-02T19:23:18.290Z,61.65
2023-05-02T19:25:49.337Z,62.00
2023-05-02T19:28:19.860Z,62.19
2023-05-02T19:30:52.557Z,61.87
2023-05-02T19:33:22.326Z,62.16
2023-05-02T19:35:54.306Z,62.16
2023-05-02T19:38:24.186Z,62.74
2023-05-02T19:40:56.885Z,62.54
2023-05-02T19:43:26.646Z,62.61
2023-05-02T19:45:59.587Z,62.61
2023-05-02T19:48:29.393Z,63.00
2023-05-02T19:50:59.235Z,63.00
2023-05-02T19:53:30.774Z,63.08
2023-05-02T19:56:00.743Z,63.08
2023-05-02T19:58:31.293Z,63.97
2023-05-02T20:01:03.839Z,63.98
2023-05-02T20:03:34.903Z,64.49
2023-05-02T20:06:05.086Z,64.57
2023-05-02T20:08:35.179Z,64.90
2023-05-02T20:11:05.331Z,64.94
2023-05-02T20:13:35.205Z,64.93
2023-05-02T20:16:07.913Z,64.73
2023-05-02T20:18:45.724Z,64.95
2023-05-02T20:21:16.586Z,65.39
2023-05-02T20:23:46.380Z,65.75
2023-05-02T20:26:18.052Z,66.30
2023-05-02T20:28:47.982Z,66.97
2023-05-02T20:31:20.685Z,67.14
2023-05-02T20:33:50.610Z,67.53
2023-05-02T20:36:21.067Z,67.83
2023-05-02T20:38:50.872Z,67.67
2023-05-02T20:41:21.541Z,67.61
2023-05-02T20:43:51.889Z,68.05
2023-05-02T20:46:24.338Z,67.84
2023-05-02T20:48:55.029Z,67.59
2023-05-02T20:51:24.829Z,67.11
2023-05-02T20:53:54.674Z,67.44
2023-05-02T20:56:24.442Z,67.59
2023-05-02T20:58:54.256Z,67.41
2023-05-02T21:01:26.760Z,67.84
2023-05-02T21:03:57.434Z,67.74
2023-05-02T21:06:27.309Z,68.13
2023-05-02T21:08:58.538Z,68.25
2023-05-02T21:11:28.380Z,68.63
2023-05-02T21:13:58.114Z,68.41
2023-05-02T21:16:30.477Z,68.47
2023-05-02T21:19:00.251Z,68.61
2023-05-02T21:21:29.992Z,68.65
2023-05-02T21:24:00.282Z,68.21
2023-05-02T21:26:30.809Z,68.03
2023-05-02T21:29:00.562Z,68.08
2023-05-02T21:31:34.966Z,68.26
2023-05-02T21:34:04.864Z,68.31
2023-05-02T21:36:34.686Z,68.65
2023-05-02T21:39:05.464Z,68.64
2023-05-02T21:41:35.210Z,69.52
2023-05-02T21:44:05.022Z,69.12
2023-05-02T21:46:37.347Z,69.38
2023-05-02T21:49:07.203Z,69.49
2023-05-02T21:51:38.818Z,69.41
2023-05-02T21:54:08.717Z,69.84
2023-05-02T21:56:38.498Z,69.90
2023-05-02T21:59:08.272Z,69.97
2023-05-02T22:01:40.618Z,69.60
2023-05-02T22:04:10.382Z,69.47
2023-05-02T22:06:40.189Z,68.50
2023-05-02T22:09:10.500Z,68.46
2023-05-02T22:11:40.306Z,68.66
2023-05-02T22:14:10.596Z,68.46
2023-05-02T22:16:43.367Z,68.71
2023-05-02T22:19:14.694Z,67.84
2023-05-02T22:21:44.518Z,68.09
2023-05-02T22:24:14.303Z,68.75
2023-05-02T22:26:44.092Z,68.91
2023-05-02T22:29:13.834Z,69.14
2023-05-02T22:31:47.338Z,69.77
2023-05-02T22:34:17.119Z,69.83
2023-05-02T22:36:46.858Z,70.09
2023-05-02T22:39:16.920Z,70.46
2023-05-02T22:41:47.079Z,69.69
2023-05-02T22:44:16.920Z,70.81
2023-05-02T22:46:49.410Z,70.68
2023-05-02T22:49:19.958Z,70.90
2023-05-02T22:51:49.763Z,71.36
2023-05-02T22:54:19.532Z,71.80
2023-05-02T22:56:49.710Z,71.49
2023-05-02T22:59:19.649Z,71.58
2023-05-02T23:01:52.057Z,71.60
2023-05-02T23:04:21.920Z,71.48
2023-05-02T23:06:51.774Z,71.99
2023-05-02T23:09:21.645Z,71.99
2023-05-02T23:11:51.597Z,72.38
2023-05-02T23:14:23.090Z,72.94
2023-05-02T23:16:56.670Z,72.84
2023-05-02T23:19:26.466Z,73.48
2023-05-02T23:21:56.172Z,73.09
2023-05-02T23:24:26.028Z,73.49
2023-05-02T23:26:55.813Z,72.88
2023-05-02T23:29:25.845Z,73.39
2023-05-02T23:31:58.479Z,74.22
2023-05-02T23:34:28.498Z,74.55
2023-05-02T23:36:58.286Z,74.22
2023-05-02T23:39:28.946Z,74.38
2023-05-02T23:41:58.710Z,74.53
2023-05-02T23:44:28.466Z,73.90
2023-05-02T23:47:01.080Z,73.71
2023-05-02T23:49:30.906Z,73.48
2023-05-02T23:52:02.788Z,73.45
2023-05-02T23:54:33.694Z,73.63
2023-05-02T23:57:03.634Z,73.72
2023-05-02T23:59:33.398Z,73.84
